createdAt,value
2019-01-21T00:01:27.373Z,69.53
2019-01-21T00:03:54.135Z,65.63
2019-01-21T00:06:20.538Z,60.90
2019-01-21T00:08:46.784Z,69.43
2019-01-21T00:11:13.055Z,58.87
2019-01-21T00:13:39.330Z,71.57
2019-01-21T00:16:05.672Z,52.57
2019-01-21T00:18:31.926Z,71.03
2019-01-21T00:20:58.195Z,83.67
2019-01-21T00:23:24.449Z,80.47
2019-01-21T00:25:50.822Z,69.83
2019-01-21T00:28:17.084Z,60.23
2019-01-21T00:30:43.455Z,52.93
2019-01-21T00:33:09.734Z,55.03
2019-01-21T00:35:35.991Z,64.70
2019-01-21T00:38:02.762Z,60.17
2019-01-21T00:40:29.023Z,77.57
2019-01-21T00:42:55.404Z,101.93
2019-01-21T00:45:21.687Z,61.33
2019-01-21T00:47:48.035Z,64.47
2019-01-21T00:50:14.414Z,66.67
2019-01-21T00:52:41.062Z,60.40
2019-01-21T00:55:08.923Z,66.23
2019-01-21T00:57:35.411Z,52.17
2019-01-21T01:00:05.088Z,59.63
2019-01-21T01:02:31.335Z,67.43
2019-01-21T01:04:57.698Z,56.37
2019-01-21T01:07:24.076Z,57.03
2019-01-21T01:09:50.343Z,57.83
2019-01-21T01:12:16.626Z,54.33
2019-01-21T01:14:42.863Z,52.03
2019-01-21T01:17:09.130Z,50.13
2019-01-21T01:19:35.399Z,58.47
2019-01-21T01:22:01.644Z,56.40
2019-01-21T01:24:27.925Z,58.03
2019-01-21T01:26:54.179Z,71.50
2019-01-21T01:29:20.446Z,70.80
2019-01-21T01:31:46.827Z,62.93
2019-01-21T01:34:13.180Z,43.90
2019-01-21T01:36:39.803Z,69.13
2019-01-21T01:39:06.461Z,74.40
2019-01-21T01:41:32.687Z,57.03
2019-01-21T01:43:59.301Z,53.97
2019-01-21T01:46:25.944Z,50.57
2019-01-21T01:48:52.241Z,54.10
2019-01-21T01:51:18.482Z,59.53
2019-01-21T01:53:44.971Z,47.90
2019-01-21T01:56:11.333Z,53.90
2019-01-21T01:58:37.974Z,55.13
2019-01-21T02:01:04.545Z,52.80
2019-01-21T02:03:30.943Z,57.47
2019-01-21T02:05:57.480Z,70.30
2019-01-21T02:08:25.534Z,69.87
2019-01-21T02:10:51.818Z,61.23
2019-01-21T02:13:18.164Z,62.57
2019-01-21T02:15:44.555Z,61.13
2019-01-21T02:18:10.806Z,69.30
2019-01-21T02:20:37.463Z,63.37
2019-01-21T02:23:03.822Z,59.67
2019-01-21T02:25:36.879Z,69.27
2019-01-21T02:28:10.331Z,80.07
2019-01-21T02:31:12.486Z,67.13
2019-01-21T02:33:57.663Z,59.27
2019-01-21T02:36:44.639Z,67.90
2019-01-21T02:39:38.992Z,74.43
2019-01-21T02:42:17.569Z,77.23
2019-01-21T02:45:22.583Z,73.67
2019-01-21T02:47:59.766Z,65.37
2019-01-21T02:50:27.938Z,51.07
2019-01-21T02:53:22.436Z,54.17
2019-01-21T02:56:04.387Z,62.03
2019-01-21T02:58:52.971Z,61.33
2019-01-21T03:01:42.792Z,62.80
2019-01-21T03:04:27.426Z,69.40
2019-01-21T03:07:00.503Z,65.67
2019-01-21T03:09:52.906Z,68.30
2019-01-21T03:12:23.022Z,65.60
2019-01-21T03:15:11.249Z,61.27
2019-01-21T03:17:50.200Z,67.10
2019-01-21T03:20:32.288Z,60.10
2019-01-21T03:23:22.203Z,64.83
2019-01-21T03:26:09.893Z,60.83
2019-01-21T03:28:49.519Z,48.77
2019-01-21T03:31:34.504Z,70.47
2019-01-21T03:34:21.192Z,83.80
2019-01-21T03:37:00.629Z,54.20
2019-01-21T03:39:52.199Z,66.67
2019-01-21T03:42:40.106Z,61.73
2019-01-21T03:45:31.512Z,58.27
2019-01-21T03:48:04.262Z,63.97
2019-01-21T03:50:57.404Z,74.17
2019-01-21T03:53:42.547Z,65.73
2019-01-21T03:56:10.215Z,72.03
2019-01-21T03:58:57.155Z,65.23
2019-01-21T04:01:43.918Z,60.03
2019-01-21T04:04:35.002Z,67.63
2019-01-21T04:07:05.072Z,71.93
2019-01-21T04:09:53.515Z,71.23
2019-01-21T04:12:38.176Z,66.63
2019-01-21T04:15:34.828Z,65.23
2019-01-21T04:18:07.760Z,77.42
2019-01-21T04:20:37.831Z,76.50
2019-01-21T04:23:40.144Z,74.37
2019-01-21T04:26:10.226Z,74.43
2019-01-21T04:28:43.069Z,60.63
2019-01-21T04:31:16.188Z,70.17
2019-01-21T04:33:58.595Z,67.90
2019-01-21T04:36:31.440Z,64.63
2019-01-21T04:39:18.630Z,57.67
2019-01-21T04:42:11.631Z,70.57
2019-01-21T04:44:59.435Z,73.30
2019-01-21T04:47:32.819Z,70.53
2019-01-21T04:50:22.774Z,70.10
2019-01-21T04:52:58.828Z,80.70
2019-01-21T04:55:51.514Z,56.07
2019-01-21T04:58:47.177Z,60.43
2019-01-21T05:01:20.321Z,67.70
2019-01-21T05:04:12.791Z,56.10
2019-01-21T05:06:48.315Z,67.67
2019-01-21T05:09:25.560Z,65.00
2019-01-21T05:11:58.655Z,70.53
2019-01-21T05:14:34.920Z,65.42
2019-01-21T05:17:25.209Z,61.30
2019-01-21T05:20:04.375Z,66.17
2019-01-21T05:22:40.370Z,66.73
2019-01-21T05:25:20.001Z,62.37
2019-01-21T05:28:05.163Z,64.10
2019-01-21T05:30:47.520Z,69.60
2019-01-21T05:33:34.308Z,67.87
2019-01-21T05:36:10.894Z,64.43
2019-01-21T05:38:57.474Z,65.83
2019-01-21T05:41:36.340Z,86.63
2019-01-21T05:44:27.427Z,71.00
2019-01-21T05:47:24.902Z,73.87
2019-01-21T05:50:19.355Z,79.93
2019-01-21T05:53:19.278Z,75.83
2019-01-21T05:55:52.086Z,72.80
2019-01-21T05:58:52.369Z,73.77
2019-01-21T06:01:42.215Z,68.30
2019-01-21T06:04:15.024Z,66.63
2019-01-21T06:06:51.191Z,65.83
2019-01-21T06:09:21.245Z,69.07
2019-01-21T06:11:57.610Z,63.50
2019-01-21T06:14:44.554Z,57.00
2019-01-21T06:17:38.767Z,55.37
2019-01-21T06:20:14.750Z,54.77
2019-01-21T06:22:47.683Z,56.00
2019-01-21T06:25:32.563Z,71.92
2019-01-21T06:28:11.003Z,73.53
2019-01-21T06:31:12.707Z,55.20
2019-01-21T06:33:45.644Z,59.63
2019-01-21T06:36:21.695Z,59.03
2019-01-21T06:38:57.966Z,60.10
2019-01-21T06:41:51.112Z,57.77
2019-01-21T06:44:32.640Z,60.47
2019-01-21T06:47:17.843Z,56.43
2019-01-21T06:49:50.803Z,52.53
2019-01-21T06:52:24.189Z,61.73
2019-01-21T06:55:03.027Z,65.27
2019-01-21T06:57:35.890Z,75.50
2019-01-21T07:00:15.039Z,65.37
2019-01-21T07:03:18.628Z,58.67
2019-01-21T07:06:07.087Z,61.47
2019-01-21T07:09:02.027Z,71.73
2019-01-21T07:11:49.806Z,81.47
2019-01-21T07:14:22.835Z,71.07
2019-01-21T07:17:10.686Z,75.30
2019-01-21T07:19:46.252Z,82.00
2019-01-21T07:22:21.931Z,64.70
2019-01-21T07:25:00.935Z,73.63
2019-01-21T07:27:36.871Z,82.57
2019-01-21T07:30:12.972Z,67.83
2019-01-21T07:32:54.583Z,75.87
2019-01-21T07:35:33.982Z,74.10
2019-01-21T07:38:04.027Z,55.37
2019-01-21T07:40:34.125Z,59.10
2019-01-21T07:43:09.971Z,57.73
2019-01-21T07:45:43.104Z,48.70
2019-01-21T07:48:34.787Z,59.77
2019-01-21T07:51:10.326Z,52.07
2019-01-21T07:53:46.415Z,56.40
2019-01-21T07:56:33.322Z,59.03
2019-01-21T07:59:38.703Z,59.60
2019-01-21T08:02:14.895Z,55.03
2019-01-21T08:04:51.036Z,65.30
2019-01-21T08:07:32.872Z,69.57
2019-01-21T08:10:25.850Z,62.83
2019-01-21T08:12:55.917Z,59.47
2019-01-21T08:15:28.715Z,61.40
2019-01-21T08:18:16.626Z,74.27
2019-01-21T08:21:05.871Z,46.70
2019-01-21T08:23:38.926Z,55.97
2019-01-21T08:26:09.307Z,62.33
2019-01-21T08:29:02.108Z,52.57
2019-01-21T08:31:32.200Z,53.50
2019-01-21T08:34:26.118Z,54.30
2019-01-21T08:37:05.251Z,62.60
2019-01-21T08:39:35.319Z,53.33
2019-01-21T08:42:27.977Z,52.23
2019-01-21T08:45:07.175Z,64.60
2019-01-21T08:47:49.276Z,60.67
2019-01-21T08:50:22.338Z,47.53
2019-01-21T08:52:52.422Z,53.70
2019-01-21T08:55:34.406Z,54.57
2019-01-21T08:58:27.592Z,56.60
2019-01-21T09:01:17.173Z,69.50
2019-01-21T09:03:56.350Z,56.80
2019-01-21T09:06:26.399Z,48.93
2019-01-21T09:09:11.806Z,57.50
2019-01-21T09:11:59.782Z,62.67
2019-01-21T09:14:50.939Z,52.67
2019-01-21T09:17:29.838Z,48.03
2019-01-21T09:19:59.909Z,48.53
2019-01-21T09:22:29.976Z,59.27
2019-01-21T09:25:12.337Z,50.77
2019-01-21T09:27:45.456Z,60.50
2019-01-21T09:30:34.856Z,66.27
2019-01-21T09:33:33.766Z,61.63
2019-01-21T09:36:33.863Z,57.30
2019-01-21T09:39:16.019Z,58.17
2019-01-21T09:41:54.972Z,65.23
2019-01-21T09:44:30.801Z,63.73
2019-01-21T09:46:56.878Z,61.67
2019-01-21T09:49:23.251Z,49.10
2019-01-21T09:51:52.129Z,63.17
2019-01-21T09:54:19.207Z,58.63
2019-01-21T09:56:47.460Z,53.07
2019-01-21T09:59:13.734Z,50.17
2019-01-21T10:01:40.880Z,53.57
2019-01-21T10:04:07.458Z,52.17
2019-01-21T10:06:37.531Z,60.50
2019-01-21T10:09:31.303Z,55.63
2019-01-21T10:12:10.303Z,52.63
2019-01-21T10:14:40.381Z,65.10
2019-01-21T10:17:13.023Z,56.93
2019-01-21T10:19:50.732Z,56.50
2019-01-21T10:22:27.264Z,57.87
2019-01-21T10:25:16.747Z,61.33
2019-01-21T10:28:20.530Z,61.13
2019-01-21T10:31:02.139Z,54.07
2019-01-21T10:33:55.374Z,56.50
2019-01-21T10:36:28.682Z,52.60
2019-01-21T10:39:15.824Z,53.57
2019-01-21T10:41:48.686Z,56.63
2019-01-21T10:44:27.843Z,51.37
2019-01-21T10:47:12.532Z,54.73
2019-01-21T10:49:59.719Z,48.83
2019-01-21T10:52:55.500Z,60.73
2019-01-21T10:55:53.223Z,64.10
2019-01-21T10:58:29.094Z,67.27
2019-01-21T11:01:21.803Z,67.57
2019-01-21T11:04:01.010Z,51.23
2019-01-21T11:06:46.404Z,68.73
2019-01-21T11:09:26.728Z,61.20
2019-01-21T11:12:17.910Z,59.97
2019-01-21T11:14:53.746Z,57.77
2019-01-21T11:17:41.774Z,54.47
2019-01-21T11:20:39.086Z,63.20
2019-01-21T11:23:29.748Z,62.20
2019-01-21T11:25:59.837Z,59.27
2019-01-21T11:28:51.111Z,50.70
2019-01-21T11:31:33.040Z,54.97
2019-01-21T11:34:08.879Z,55.07
2019-01-21T11:36:54.104Z,53.37
2019-01-21T11:39:24.184Z,62.23
2019-01-21T11:42:05.786Z,53.20
2019-01-21T11:45:11.183Z,53.53
2019-01-21T11:47:50.006Z,57.47
2019-01-21T11:50:32.074Z,59.37
2019-01-21T11:53:08.572Z,55.00
2019-01-21T11:55:44.683Z,48.23
2019-01-21T11:58:30.515Z,57.10
2019-01-21T12:01:03.641Z,57.00
2019-01-21T12:03:48.806Z,61.70
2019-01-21T12:06:17.863Z,63.67
2019-01-21T12:09:09.304Z,62.53
2019-01-21T12:11:42.788Z,67.10
2019-01-21T12:14:12.859Z,66.93
2019-01-21T12:17:01.370Z,61.43
2019-01-21T12:20:03.520Z,53.77
2019-01-21T12:22:36.618Z,62.80
2019-01-21T12:25:38.956Z,57.50
2019-01-21T12:28:18.024Z,60.37
2019-01-21T12:30:48.113Z,68.33
2019-01-21T12:33:23.647Z,55.57
2019-01-21T12:36:08.852Z,64.57
2019-01-21T12:39:01.753Z,61.60
2019-01-21T12:41:55.982Z,61.53
2019-01-21T12:44:48.311Z,63.07
2019-01-21T12:47:21.158Z,59.60
2019-01-21T12:49:54.009Z,50.63
2019-01-21T12:52:24.103Z,55.93
2019-01-21T12:55:02.940Z,54.53
2019-01-21T12:57:48.377Z,54.20
2019-01-21T13:00:30.328Z,63.53
2019-01-21T13:03:15.535Z,47.70
2019-01-21T13:06:10.206Z,59.83
2019-01-21T13:08:52.559Z,64.37
2019-01-21T13:11:28.495Z,59.23
2019-01-21T13:14:23.006Z,59.50
2019-01-21T13:16:53.075Z,64.23
2019-01-21T13:19:53.460Z,45.87
2019-01-21T13:22:32.503Z,59.00
2019-01-21T13:27:50.872Z,52.33
2019-01-21T13:30:20.924Z,58.80
2019-01-21T13:32:51.028Z,56.27
2019-01-21T13:35:23.904Z,51.60
2019-01-21T13:37:53.990Z,50.77
2019-01-21T13:40:33.135Z,47.00
2019-01-21T13:43:09.249Z,49.67
2019-01-21T13:46:12.925Z,47.90
2019-01-21T13:48:54.655Z,55.97
2019-01-21T13:51:43.071Z,58.47
2019-01-21T13:54:15.894Z,61.07
2019-01-21T13:56:45.968Z,56.80
2019-01-21T13:59:36.970Z,59.23
2019-01-21T14:02:10.182Z,56.60
2019-01-21T14:05:01.592Z,48.57
2019-01-21T14:07:51.418Z,54.27
2019-01-21T14:10:48.727Z,47.73
2019-01-21T14:13:26.384Z,49.37
2019-01-21T14:16:13.158Z,60.53
2019-01-21T14:18:52.599Z,62.57
2019-01-21T14:21:31.197Z,59.03
2019-01-21T14:24:15.983Z,68.17
2019-01-21T14:26:52.198Z,63.80
2019-01-21T14:29:37.348Z,52.43
2019-01-21T14:32:16.132Z,49.83
2019-01-21T14:34:46.202Z,52.03
2019-01-21T14:37:25.258Z,50.55
2019-01-21T14:39:57.923Z,54.70
2019-01-21T14:42:27.990Z,45.07
2019-01-21T14:45:12.679Z,48.83
2019-01-21T14:47:42.741Z,55.50
2019-01-21T14:50:13.191Z,50.80
2019-01-21T14:52:55.645Z,55.47
2019-01-21T14:55:28.423Z,57.47
2019-01-21T14:58:10.526Z,46.60
2019-01-21T15:00:40.596Z,52.87
2019-01-21T15:03:25.291Z,60.13
2019-01-21T15:05:58.102Z,53.67
2019-01-21T15:08:28.447Z,51.63
2019-01-21T15:11:21.235Z,48.63
2019-01-21T15:14:00.220Z,44.47
2019-01-21T15:17:00.443Z,42.83
2019-01-21T15:19:29.939Z,41.63
2019-01-21T15:22:20.783Z,39.07
2019-01-21T15:25:26.038Z,37.67
2019-01-21T15:28:12.833Z,42.30
2019-01-21T15:30:42.894Z,33.10
2019-01-21T15:33:32.506Z,36.90
2019-01-21T15:36:17.723Z,35.47
2019-01-21T15:39:05.630Z,40.90
2019-01-21T15:41:39.223Z,48.70
2019-01-21T15:44:12.346Z,51.57
2019-01-21T15:47:00.112Z,59.37
2019-01-21T15:49:32.738Z,53.93
2019-01-21T15:52:08.651Z,54.30
2019-01-21T15:54:44.677Z,66.00
2019-01-21T15:57:24.198Z,56.57
2019-01-21T16:00:27.755Z,54.43
2019-01-21T16:03:03.315Z,45.27
2019-01-21T16:05:33.375Z,41.73
2019-01-21T16:08:03.443Z,55.00
2019-01-21T16:10:36.075Z,59.25
2019-01-21T16:13:24.420Z,50.60
2019-01-21T16:16:12.115Z,54.60
2019-01-21T16:18:45.189Z,49.70
2019-01-21T16:21:41.123Z,49.80
2019-01-21T16:24:35.653Z,52.50
2019-01-21T16:27:06.007Z,45.07
2019-01-21T16:30:00.266Z,47.10
2019-01-21T16:32:29.386Z,50.03
2019-01-21T16:35:20.590Z,48.67
2019-01-21T16:37:50.674Z,37.00
2019-01-21T16:40:37.270Z,43.27
2019-01-21T16:43:03.652Z,47.20
2019-01-21T16:45:30.015Z,43.03
2019-01-21T16:47:56.380Z,39.73
2019-01-21T16:50:22.869Z,44.70
2019-01-21T16:52:49.136Z,43.87
2019-01-21T16:55:15.508Z,49.23
2019-01-21T16:57:41.805Z,47.13
2019-01-21T17:00:11.368Z,46.63
2019-01-21T17:02:37.719Z,50.47
2019-01-21T17:05:07.406Z,53.67
2019-01-21T17:07:33.776Z,43.07
2019-01-21T17:10:00.120Z,44.33
2019-01-21T17:12:26.514Z,53.63
2019-01-21T17:14:57.406Z,46.77
2019-01-21T17:17:20.843Z,48.97
2019-01-21T17:19:47.206Z,43.23
2019-01-21T17:22:13.563Z,46.13
2019-01-21T17:24:39.847Z,45.87
2019-01-21T17:27:06.984Z,49.67
2019-01-21T17:29:33.281Z,45.83
2019-01-21T17:31:59.663Z,45.17
2019-01-21T17:34:26.023Z,52.30
2019-01-21T17:36:52.298Z,47.90
2019-01-21T17:39:18.539Z,42.97
2019-01-21T17:41:44.803Z,44.77
2019-01-21T17:44:11.079Z,53.40
2019-01-21T17:46:37.439Z,52.80
2019-01-21T17:49:04.098Z,55.93
2019-01-21T17:51:33.820Z,60.23
2019-01-21T17:53:58.455Z,55.05
2019-01-21T17:56:24.735Z,49.57
2019-01-21T17:58:51.008Z,43.90
2019-01-21T18:01:17.255Z,51.17
2019-01-21T18:03:43.527Z,42.77
2019-01-21T18:06:09.895Z,47.63
2019-01-21T18:08:36.167Z,49.00
2019-01-21T18:11:02.746Z,48.03
2019-01-21T18:13:29.343Z,58.73
2019-01-21T18:15:55.609Z,55.57
2019-01-21T18:18:21.875Z,52.80
2019-01-21T18:20:48.124Z,51.23
2019-01-21T18:23:14.394Z,58.77
2019-01-21T18:25:40.659Z,49.60
2019-01-21T18:28:07.114Z,57.67
2019-01-21T18:30:33.841Z,52.97
2019-01-21T18:33:00.084Z,58.23
2019-01-21T18:35:26.380Z,54.73
2019-01-21T18:37:53.536Z,51.40
2019-01-21T18:40:20.395Z,48.50
2019-01-21T18:42:47.878Z,47.43
2019-01-21T18:45:17.544Z,49.20
2019-01-21T18:47:43.851Z,52.70
2019-01-21T18:50:10.812Z,53.68
2019-01-21T18:52:37.167Z,56.50
2019-01-21T18:55:05.943Z,56.33
2019-01-21T18:57:32.195Z,53.57
2019-01-21T18:59:58.552Z,56.53
2019-01-21T19:02:24.845Z,49.93
2019-01-21T19:04:51.102Z,63.05
2019-01-21T19:07:17.378Z,60.63
2019-01-21T19:09:43.663Z,55.87
2019-01-21T19:12:09.900Z,57.17
2019-01-21T19:14:36.211Z,55.83
2019-01-21T19:17:02.756Z,56.17
2019-01-21T19:19:29.023Z,46.63
2019-01-21T19:21:55.285Z,48.20
2019-01-21T19:24:21.547Z,57.20
2019-01-21T19:26:47.816Z,59.48
2019-01-21T19:29:14.447Z,50.43
2019-01-21T19:31:40.810Z,53.83
2019-01-21T19:34:07.173Z,55.30
2019-01-21T19:36:33.439Z,50.17
2019-01-21T19:38:59.692Z,45.40
2019-01-21T19:41:26.511Z,56.03
2019-01-21T19:43:52.851Z,50.27
2019-01-21T19:46:19.130Z,61.40
2019-01-21T19:48:45.396Z,57.83
2019-01-21T19:51:11.660Z,63.30
2019-01-21T19:53:37.935Z,55.40
2019-01-21T19:56:04.299Z,60.20
2019-01-21T19:58:30.642Z,57.87
2019-01-21T20:00:57.238Z,61.63
2019-01-21T20:03:23.631Z,55.00
2019-01-21T20:05:49.984Z,49.97
2019-01-21T20:08:16.229Z,49.47
2019-01-21T20:10:42.502Z,53.97
2019-01-21T20:13:09.268Z,62.27
2019-01-21T20:15:35.646Z,49.37
2019-01-21T20:18:02.316Z,54.30
2019-01-21T20:20:32.384Z,42.10
2019-01-21T20:22:58.657Z,38.70
2019-01-21T20:25:25.203Z,38.17
2019-01-21T20:27:51.559Z,41.20
2019-01-21T20:30:20.572Z,36.40
2019-01-21T20:32:46.817Z,39.97
2019-01-21T20:35:13.583Z,40.13
2019-01-21T20:37:39.961Z,40.47
2019-01-21T20:40:12.807Z,43.90
2019-01-21T20:42:39.111Z,50.67
2019-01-21T20:45:08.856Z,47.47
2019-01-21T20:47:35.127Z,51.53
2019-01-21T20:50:01.608Z,45.13
2019-01-21T20:52:27.955Z,63.87
2019-01-21T20:54:54.670Z,46.73
2019-01-21T20:57:21.003Z,52.40
2019-01-21T20:59:47.248Z,55.53
2019-01-21T21:02:13.610Z,50.77
2019-01-21T21:04:39.903Z,44.77
2019-01-21T21:07:06.168Z,43.70
2019-01-21T21:09:32.743Z,48.13
2019-01-21T21:11:59.029Z,54.17
2019-01-21T21:14:25.347Z,47.87
2019-01-21T21:16:51.582Z,54.87
2019-01-21T21:19:17.902Z,50.67
2019-01-21T21:21:44.139Z,44.67
2019-01-21T21:24:10.880Z,50.77
2019-01-21T21:26:37.151Z,67.10
2019-01-21T21:29:03.515Z,57.07
2019-01-21T21:31:29.790Z,59.93
2019-01-21T21:33:56.067Z,55.93
2019-01-21T21:36:22.335Z,58.37
2019-01-21T21:38:48.618Z,52.67
2019-01-21T21:41:14.998Z,56.80
2019-01-21T21:43:41.270Z,57.33
2019-01-21T21:46:07.577Z,56.00
2019-01-21T21:48:33.859Z,58.40
2019-01-21T21:51:00.125Z,55.43
2019-01-21T21:53:26.411Z,47.17
2019-01-21T21:55:52.665Z,65.50
2019-01-21T21:58:18.951Z,48.23
2019-01-21T22:00:45.219Z,59.43
2019-01-21T22:03:11.483Z,42.43
2019-01-21T22:05:37.774Z,54.00
2019-01-21T22:08:04.337Z,50.17
2019-01-21T22:10:31.013Z,49.27
2019-01-21T22:12:57.378Z,54.73
2019-01-21T22:15:24.384Z,55.50
2019-01-21T22:17:50.881Z,54.37
2019-01-21T22:20:19.433Z,48.87
2019-01-21T22:22:45.794Z,55.37
2019-01-21T22:25:12.391Z,55.63
2019-01-21T22:27:38.655Z,50.23
2019-01-21T22:30:14.230Z,56.47
2019-01-21T22:32:40.499Z,49.90
2019-01-21T22:35:07.193Z,48.70
2019-01-21T22:37:33.454Z,49.97
2019-01-21T22:39:59.931Z,50.93
2019-01-21T22:42:26.175Z,51.93
2019-01-21T22:44:52.447Z,51.47
2019-01-21T22:47:18.711Z,47.00
2019-01-21T22:49:44.984Z,44.97
2019-01-21T22:52:11.359Z,49.93
2019-01-21T22:54:37.621Z,60.37
2019-01-21T22:57:03.879Z,56.83
2019-01-21T22:59:30.148Z,57.20
2019-01-21T23:01:56.403Z,57.63
2019-01-21T23:04:22.650Z,54.20
2019-01-21T23:06:48.930Z,56.23
2019-01-21T23:09:15.280Z,51.33
2019-01-21T23:11:41.958Z,49.80
2019-01-21T23:14:08.428Z,49.40
2019-01-21T23:16:34.664Z,49.80
2019-01-21T23:19:00.950Z,51.07
2019-01-21T23:21:27.207Z,56.40
2019-01-21T23:23:53.467Z,53.63
2019-01-21T23:26:19.764Z,50.93
2019-01-21T23:28:46.769Z,51.47
2019-01-21T23:31:13.060Z,45.83
2019-01-21T23:33:39.315Z,50.13
2019-01-21T23:36:05.575Z,52.67
2019-01-21T23:38:32.207Z,61.03
2019-01-21T23:40:58.580Z,57.23
2019-01-21T23:43:24.926Z,56.23
2019-01-21T23:45:51.385Z,59.73
2019-01-21T23:48:17.644Z,60.17
2019-01-21T23:50:44.014Z,60.73
2019-01-21T23:53:10.494Z,59.13
2019-01-21T23:55:37.108Z,60.67
2019-01-21T23:58:03.476Z,57.37
